createdAt,value
2022-08-30T00:01:22.019Z,6.97
2022-08-30T00:03:48.880Z,6.94
2022-08-30T00:06:19.757Z,6.66
2022-08-30T00:08:47.542Z,6.84
2022-08-30T00:11:20.358Z,6.78
2022-08-30T00:13:48.820Z,6.73
2022-08-30T00:16:15.909Z,7.10
2022-08-30T00:18:44.641Z,8.00
2022-08-30T00:21:12.961Z,7.31
2022-08-30T00:23:40.700Z,7.27
2022-08-30T00:26:08.194Z,7.23
2022-08-30T00:28:35.875Z,7.47
2022-08-30T00:31:02.769Z,7.18
2022-08-30T00:33:30.155Z,7.16
2022-08-30T00:35:57.481Z,7.06
2022-08-30T00:38:24.194Z,6.83
2022-08-30T00:40:52.607Z,7.02
2022-08-30T00:43:31.144Z,7.27
2022-08-30T00:45:58.283Z,7.18
2022-08-30T00:48:25.822Z,7.34
2022-08-30T00:51:01.733Z,7.19
2022-08-30T00:53:35.903Z,7.02
2022-08-30T00:56:04.362Z,6.96
2022-08-30T00:58:35.842Z,7.18
2022-08-30T01:01:04.728Z,7.10
2022-08-30T01:03:34.338Z,7.16
2022-08-30T01:06:02.794Z,7.49
2022-08-30T01:08:29.448Z,7.42
2022-08-30T01:10:57.808Z,7.25
2022-08-30T01:13:27.006Z,7.83
2022-08-30T01:15:55.857Z,7.49
2022-08-30T01:18:23.783Z,7.43
2022-08-30T01:21:07.743Z,7.49
2022-08-30T01:23:40.258Z,7.78
2022-08-30T01:26:08.125Z,7.14
2022-08-30T01:28:35.398Z,7.18
2022-08-30T01:31:02.585Z,7.59
2022-08-30T01:33:29.419Z,7.17
2022-08-30T01:35:57.786Z,7.34
2022-08-30T01:38:29.441Z,7.43
2022-08-30T01:41:07.432Z,7.53
2022-08-30T01:43:34.075Z,7.50
2022-08-30T01:46:00.977Z,7.29
2022-08-30T01:48:30.877Z,7.15
2022-08-30T01:50:58.386Z,7.39
2022-08-30T01:53:25.087Z,7.67
2022-08-30T01:55:51.738Z,7.45
2022-08-30T01:58:18.402Z,7.29
2022-08-30T02:00:45.169Z,7.56
2022-08-30T02:03:11.818Z,7.34
2022-08-30T02:05:38.403Z,7.35
2022-08-30T02:08:05.131Z,7.37
2022-08-30T02:10:32.039Z,7.40
2022-08-30T02:12:58.654Z,7.10
2022-08-30T02:15:25.584Z,7.02
2022-08-30T02:17:52.243Z,7.16
2022-08-30T02:20:18.877Z,6.88
2022-08-30T02:22:49.195Z,7.33
2022-08-30T02:25:20.919Z,7.67
2022-08-30T02:27:48.532Z,6.98
2022-08-30T02:30:15.294Z,7.04
2022-08-30T02:32:41.952Z,7.61
2022-08-30T02:35:09.045Z,7.49
2022-08-30T02:37:35.782Z,7.59
2022-08-30T02:40:03.346Z,7.31
2022-08-30T02:42:29.984Z,7.14
2022-08-30T02:44:56.738Z,7.25
2022-08-30T02:47:23.365Z,7.55
2022-08-30T02:49:50.013Z,7.29
2022-08-30T02:52:16.646Z,7.46
2022-08-30T02:54:43.282Z,7.52
2022-08-30T02:57:20.273Z,7.67
2022-08-30T02:59:47.677Z,7.17
2022-08-30T03:02:15.560Z,7.42
2022-08-30T03:04:42.639Z,7.20
2022-08-30T03:07:09.325Z,6.84
2022-08-30T03:09:36.539Z,7.36
2022-08-30T03:12:03.731Z,7.33
2022-08-30T03:14:30.431Z,6.93
2022-08-30T03:16:57.213Z,7.28
2022-08-30T03:19:23.904Z,7.03
2022-08-30T03:21:50.566Z,6.94
2022-08-30T03:24:17.728Z,7.02
2022-08-30T03:26:46.501Z,7.17
2022-08-30T03:29:13.526Z,6.92
2022-08-30T03:31:52.652Z,7.22
2022-08-30T03:34:20.121Z,7.16
2022-08-30T03:36:46.821Z,6.92
2022-08-30T03:39:14.050Z,7.03
2022-08-30T03:41:40.851Z,7.05
2022-08-30T03:44:07.956Z,6.86
2022-08-30T03:46:37.470Z,6.87
2022-08-30T03:49:05.490Z,7.07
2022-08-30T03:51:32.749Z,7.06
2022-08-30T03:54:00.731Z,6.73
2022-08-30T03:56:27.424Z,7.03
2022-08-30T03:58:54.324Z,7.08
2022-08-30T04:01:21.069Z,6.84
2022-08-30T04:03:48.028Z,6.83
2022-08-30T04:06:14.669Z,6.62
2022-08-30T04:08:42.040Z,6.68
2022-08-30T04:11:09.213Z,6.49
2022-08-30T04:13:35.883Z,6.47
2022-08-30T04:16:02.742Z,6.41
2022-08-30T04:18:29.401Z,6.46
2022-08-30T04:20:56.150Z,6.16
2022-08-30T04:23:22.830Z,6.18
2022-08-30T04:25:49.480Z,6.51
2022-08-30T04:28:16.198Z,5.74
2022-08-30T04:30:44.739Z,6.16
2022-08-30T04:33:13.627Z,6.09
2022-08-30T04:35:42.097Z,6.25
2022-08-30T04:38:09.565Z,6.13
2022-08-30T04:40:42.529Z,6.23
2022-08-30T04:43:09.995Z,6.29
2022-08-30T04:45:38.874Z,6.48
2022-08-30T04:48:06.561Z,6.69
2022-08-30T04:50:33.289Z,6.24
2022-08-30T04:53:00.013Z,6.26
2022-08-30T04:55:26.666Z,6.13
2022-08-30T04:57:53.407Z,6.25
2022-08-30T05:00:20.675Z,6.41
2022-08-30T05:02:47.915Z,6.30
2022-08-30T05:05:14.830Z,6.50
2022-08-30T05:07:41.466Z,6.25
2022-08-30T05:10:11.367Z,6.08
2022-08-30T05:12:38.934Z,6.20
2022-08-30T05:15:06.014Z,6.32
2022-08-30T05:17:32.904Z,6.33
2022-08-30T05:20:01.873Z,6.29
2022-08-30T05:22:28.601Z,5.91
2022-08-30T05:24:55.253Z,6.29
2022-08-30T05:27:21.985Z,6.38
2022-08-30T05:29:48.817Z,6.46
2022-08-30T05:32:15.632Z,6.03
2022-08-30T05:34:42.224Z,6.11
2022-08-30T05:37:08.870Z,6.14
2022-08-30T05:39:45.089Z,6.52
2022-08-30T05:42:18.800Z,6.32
2022-08-30T05:44:45.450Z,6.13
2022-08-30T05:47:12.085Z,6.12
2022-08-30T05:49:38.750Z,6.33
2022-08-30T05:52:05.402Z,5.93
2022-08-30T05:54:32.053Z,6.12
2022-08-30T05:56:58.695Z,6.12
2022-08-30T05:59:25.540Z,6.19
2022-08-30T06:01:58.212Z,6.10
2022-08-30T06:04:26.085Z,6.30
2022-08-30T06:06:52.909Z,6.66
2022-08-30T06:09:19.709Z,6.50
2022-08-30T06:11:47.326Z,6.62
2022-08-30T06:14:14.830Z,6.38
2022-08-30T06:16:42.898Z,6.19
2022-08-30T06:19:09.751Z,6.26
2022-08-30T06:21:37.592Z,6.32
2022-08-30T06:24:07.747Z,6.46
2022-08-30T06:26:39.244Z,6.02
2022-08-30T06:29:06.033Z,6.39
2022-08-30T06:31:33.602Z,6.33
2022-08-30T06:34:00.304Z,6.39
2022-08-30T06:36:27.164Z,6.10
2022-08-30T06:38:56.488Z,6.22
2022-08-30T06:41:26.797Z,6.23
2022-08-30T06:43:54.785Z,6.23
2022-08-30T06:46:28.231Z,6.13
2022-08-30T06:48:56.671Z,5.99
2022-08-30T06:51:33.391Z,5.85
2022-08-30T06:54:03.253Z,6.43
2022-08-30T06:56:31.143Z,6.89
2022-08-30T06:58:58.377Z,7.05
2022-08-30T07:01:28.160Z,6.84
2022-08-30T07:03:54.871Z,6.88
2022-08-30T07:06:23.213Z,6.14
2022-08-30T07:08:50.333Z,6.47
2022-08-30T07:11:37.970Z,6.04
2022-08-30T07:14:06.312Z,6.00
2022-08-30T07:16:34.160Z,5.87
2022-08-30T07:19:01.342Z,5.77
2022-08-30T07:21:41.249Z,6.00
2022-08-30T07:24:08.843Z,6.04
2022-08-30T07:26:43.313Z,5.92
2022-08-30T07:29:10.286Z,5.81
2022-08-30T07:31:37.522Z,5.97
2022-08-30T07:34:05.040Z,6.18
2022-08-30T07:36:32.023Z,6.12
2022-08-30T07:38:59.132Z,6.21
2022-08-30T07:41:33.389Z,5.79
2022-08-30T07:44:01.294Z,6.64
2022-08-30T07:46:28.111Z,6.11
2022-08-30T07:48:54.836Z,6.26
2022-08-30T07:51:24.470Z,6.13
2022-08-30T07:53:53.496Z,6.12
2022-08-30T07:56:20.850Z,6.17
2022-08-30T07:58:48.037Z,5.97
2022-08-30T08:01:15.924Z,5.84
2022-08-30T08:03:43.590Z,6.09
2022-08-30T08:06:12.826Z,5.92
2022-08-30T08:08:40.860Z,5.99
2022-08-30T08:11:16.536Z,6.29
2022-08-30T08:13:53.090Z,6.38
2022-08-30T08:16:28.994Z,6.28
2022-08-30T08:18:58.849Z,6.02
2022-08-30T08:21:26.980Z,5.95
2022-08-30T08:23:53.907Z,6.11
2022-08-30T08:26:21.504Z,5.85
2022-08-30T08:28:48.205Z,6.07
2022-08-30T08:31:33.769Z,6.29
2022-08-30T08:34:02.575Z,5.86
2022-08-30T08:36:30.394Z,6.05
2022-08-30T08:38:57.171Z,5.94
2022-08-30T08:41:51.562Z,5.78
2022-08-30T08:44:23.872Z,6.22
2022-08-30T08:47:13.726Z,6.53
2022-08-30T08:49:45.305Z,6.72
2022-08-30T08:52:23.114Z,6.55
2022-08-30T08:55:01.990Z,6.45
2022-08-30T08:57:35.238Z,6.53
2022-08-30T09:00:13.662Z,6.21
2022-08-30T09:02:43.278Z,7.04
2022-08-30T09:05:17.532Z,6.38
2022-08-30T09:07:51.074Z,6.43
2022-08-30T09:10:29.981Z,6.97
2022-08-30T09:13:05.138Z,6.84
2022-08-30T09:15:34.894Z,6.81
2022-08-30T09:18:05.387Z,6.90
2022-08-30T09:20:44.301Z,7.09
2022-08-30T09:23:13.614Z,7.25
2022-08-30T09:25:56.328Z,6.74
2022-08-30T09:28:34.451Z,6.80
2022-08-30T09:31:03.192Z,6.84
2022-08-30T09:33:30.521Z,7.00
2022-08-30T09:36:12.953Z,7.21
2022-08-30T09:38:40.680Z,7.15
2022-08-30T09:41:36.298Z,7.04
2022-08-30T09:44:15.573Z,7.01
2022-08-30T09:46:48.880Z,7.34
2022-08-30T09:49:41.325Z,7.49
2022-08-30T09:52:41.537Z,7.20
2022-08-30T09:55:08.300Z,7.68
2022-08-30T09:58:03.310Z,7.96
2022-08-30T10:00:39.468Z,7.40
2022-08-30T10:03:47.829Z,7.67
2022-08-30T10:06:25.220Z,7.88
2022-08-30T10:09:13.141Z,8.25
2022-08-30T10:12:00.913Z,8.04
2022-08-30T10:14:59.744Z,8.08
2022-08-30T10:17:49.518Z,8.03
2022-08-30T10:20:33.743Z,7.81
2022-08-30T10:23:09.427Z,7.78
2022-08-30T10:25:46.732Z,7.91
2022-08-30T10:28:42.150Z,8.06
2022-08-30T10:31:20.621Z,7.86
2022-08-30T10:33:58.681Z,7.71
2022-08-30T10:36:36.013Z,7.74
2022-08-30T10:39:04.871Z,7.54
2022-08-30T10:41:31.449Z,7.77
2022-08-30T10:44:21.029Z,8.19
2022-08-30T10:47:04.321Z,7.68
2022-08-30T10:49:40.485Z,7.55
2022-08-30T10:52:23.501Z,8.06
2022-08-30T10:55:18.406Z,8.40
2022-08-30T10:57:45.584Z,8.31
2022-08-30T11:00:22.444Z,9.41
2022-08-30T11:03:06.102Z,8.66
2022-08-30T11:06:21.719Z,8.78
2022-08-30T11:09:13.797Z,9.14
2022-08-30T11:12:01.897Z,9.10
2022-08-30T11:14:30.281Z,8.78
2022-08-30T11:17:00.564Z,8.90
2022-08-30T11:19:40.991Z,9.34
2022-08-30T11:22:21.432Z,9.50
2022-08-30T11:25:16.830Z,9.69
2022-08-30T11:27:55.178Z,9.41
2022-08-30T11:30:26.511Z,8.92
2022-08-30T11:33:05.428Z,8.97
2022-08-30T11:35:39.082Z,9.72
2022-08-30T11:38:25.291Z,9.29
2022-08-30T11:40:54.537Z,9.20
2022-08-30T11:43:41.057Z,9.16
2022-08-30T11:46:34.662Z,9.30
2022-08-30T11:49:13.202Z,9.17
2022-08-30T11:52:27.527Z,9.55
2022-08-30T11:55:15.077Z,8.76
2022-08-30T11:57:47.520Z,9.03
2022-08-30T12:00:28.736Z,8.71
2022-08-30T12:02:59.649Z,9.46
2022-08-30T12:05:38.463Z,9.71
2022-08-30T12:08:24.365Z,9.56
2022-08-30T12:10:58.597Z,8.91
2022-08-30T12:13:34.078Z,8.77
2022-08-30T12:16:06.844Z,9.12
2022-08-30T12:18:47.014Z,8.70
2022-08-30T12:21:13.642Z,8.90
2022-08-30T12:24:06.625Z,8.77
2022-08-30T12:26:33.275Z,8.88
2022-08-30T12:29:26.700Z,8.80
2022-08-30T12:32:00.697Z,8.82
2022-08-30T12:34:49.377Z,8.88
2022-08-30T12:37:23.793Z,8.51
2022-08-30T12:40:02.693Z,8.90
2022-08-30T12:42:33.311Z,9.21
2022-08-30T12:45:06.151Z,8.95
2022-08-30T12:47:48.060Z,9.25
2022-08-30T12:50:22.510Z,9.29
2022-08-30T12:53:09.309Z,9.52
2022-08-30T12:55:59.222Z,9.62
2022-08-30T12:58:38.396Z,9.11
2022-08-30T13:01:24.558Z,9.12
2022-08-30T13:04:03.049Z,8.75
2022-08-30T13:06:49.116Z,8.53
2022-08-30T13:09:42.755Z,8.61
2022-08-30T13:12:26.277Z,9.27
2022-08-30T13:15:08.884Z,9.38
2022-08-30T13:17:38.792Z,9.00
2022-08-30T13:20:17.197Z,9.06
2022-08-30T13:23:02.275Z,9.04
2022-08-30T13:25:29.321Z,9.18
2022-08-30T13:28:01.247Z,9.10
2022-08-30T13:30:30.143Z,10.00
2022-08-30T13:32:57.908Z,10.20
2022-08-30T13:35:25.374Z,9.51
2022-08-30T13:37:52.228Z,9.09
2022-08-30T13:40:21.441Z,9.14
2022-08-30T13:42:49.105Z,9.14
2022-08-30T13:48:07.060Z,8.86
2022-08-30T13:50:33.818Z,8.40
2022-08-30T13:53:00.500Z,8.80
2022-08-30T13:55:28.082Z,8.76
2022-08-30T13:57:58.031Z,8.09
2022-08-30T14:00:26.184Z,7.84
2022-08-30T14:02:53.948Z,7.88
2022-08-30T14:11:04.418Z,7.94
2022-08-30T14:13:32.105Z,7.80
2022-08-30T14:18:48.947Z,8.20
2022-08-30T14:21:16.026Z,7.80
2022-08-30T14:23:42.822Z,7.46
2022-08-30T14:26:28.149Z,7.55
2022-08-30T14:28:59.811Z,7.61
2022-08-30T14:31:26.467Z,7.89
2022-08-30T14:33:53.157Z,8.06
2022-08-30T14:36:23.887Z,8.22
2022-08-30T14:38:51.474Z,7.98
2022-08-30T14:41:18.134Z,7.79
2022-08-30T14:43:45.057Z,8.02
2022-08-30T14:46:15.623Z,8.24
2022-08-30T14:48:43.099Z,8.50
2022-08-30T14:51:22.643Z,8.16
2022-08-30T14:53:53.532Z,7.85
2022-08-30T14:56:23.222Z,8.35
2022-08-30T14:58:53.800Z,8.24
2022-08-30T15:01:21.043Z,8.33
2022-08-30T15:03:48.026Z,8.23
2022-08-30T15:06:15.507Z,7.84
2022-08-30T15:08:43.391Z,8.25
2022-08-30T15:11:18.501Z,8.13
2022-08-30T15:13:46.070Z,8.31
2022-08-30T15:16:14.522Z,8.19
2022-08-30T15:18:41.830Z,8.25
2022-08-30T15:21:09.635Z,8.24
2022-08-30T15:23:36.871Z,8.29
2022-08-30T15:26:05.729Z,8.71
2022-08-30T15:28:34.999Z,8.05
2022-08-30T15:31:06.319Z,8.09
2022-08-30T15:33:35.981Z,7.59
2022-08-30T15:36:05.397Z,8.35
2022-08-30T15:38:32.916Z,8.33
2022-08-30T15:41:03.581Z,8.48
2022-08-30T15:43:31.753Z,7.87
2022-08-30T15:46:29.867Z,8.37
2022-08-30T15:49:01.929Z,8.34
2022-08-30T15:51:30.868Z,8.13
2022-08-30T15:54:09.657Z,8.67
2022-08-30T15:56:41.815Z,9.03
2022-08-30T15:59:09.926Z,8.46
2022-08-30T16:01:37.859Z,8.37
2022-08-30T16:04:04.565Z,8.53
2022-08-30T16:06:34.965Z,8.27
2022-08-30T16:09:01.918Z,7.94
2022-08-30T16:11:28.540Z,8.37
2022-08-30T16:13:56.714Z,8.77
2022-08-30T16:16:25.182Z,8.31
2022-08-30T16:18:54.233Z,9.01
2022-08-30T16:21:31.128Z,9.46
2022-08-30T16:24:00.851Z,9.34
2022-08-30T16:26:29.668Z,9.38
2022-08-30T16:28:56.319Z,9.52
2022-08-30T16:31:24.329Z,9.41
2022-08-30T16:33:53.173Z,9.43
2022-08-30T16:36:22.397Z,9.21
2022-08-30T16:38:49.773Z,8.31
2022-08-30T16:41:21.797Z,7.92
2022-08-30T16:43:53.263Z,7.53
2022-08-30T16:46:27.190Z,8.36
2022-08-30T16:48:57.813Z,7.41
2022-08-30T16:51:27.635Z,8.73
2022-08-30T16:53:56.590Z,9.36
2022-08-30T16:56:26.680Z,9.01
2022-08-30T17:01:41.040Z,8.19
2022-08-30T17:04:08.790Z,7.96
2022-08-30T17:06:36.761Z,5.44
2022-08-30T17:09:05.223Z,3.92
2022-08-30T17:11:42.293Z,3.26
2022-08-30T17:14:10.261Z,3.17
2022-08-30T17:19:28.658Z,3.60
2022-08-30T17:21:56.027Z,3.35
2022-08-30T17:24:22.779Z,3.38
2022-08-30T17:26:51.312Z,3.05
2022-08-30T17:29:18.004Z,2.95
2022-08-30T17:31:44.723Z,2.74
2022-08-30T17:34:11.642Z,3.71
2022-08-30T17:36:38.512Z,3.93
2022-08-30T17:39:10.461Z,4.40
2022-08-30T17:41:43.308Z,4.88
2022-08-30T17:44:12.852Z,5.14
2022-08-30T17:46:40.328Z,4.88
2022-08-30T17:49:10.417Z,4.42
2022-08-30T17:51:37.400Z,3.99
2022-08-30T17:54:06.563Z,3.29
2022-08-30T17:56:35.527Z,3.02
2022-08-30T17:59:03.009Z,2.87
2022-08-30T18:01:30.330Z,2.42
2022-08-30T18:03:57.804Z,2.55
2022-08-30T18:06:31.505Z,2.75
2022-08-30T18:08:58.201Z,2.68
2022-08-30T18:11:27.167Z,2.48
2022-08-30T18:13:53.775Z,2.45
2022-08-30T18:16:21.687Z,2.35
2022-08-30T18:18:57.351Z,2.28
2022-08-30T18:21:25.289Z,2.34
2022-08-30T18:23:52.616Z,2.30
2022-08-30T18:26:24.143Z,2.17
2022-08-30T18:28:51.305Z,2.39
2022-08-30T18:31:18.051Z,2.53
2022-08-30T18:33:48.687Z,2.30
2022-08-30T18:36:16.495Z,2.25
2022-08-30T18:38:44.637Z,2.20
2022-08-30T18:41:13.340Z,2.05
2022-08-30T18:43:40.929Z,2.21
2022-08-30T18:46:10.992Z,2.49
2022-08-30T18:48:38.871Z,2.77
2022-08-30T18:51:19.085Z,2.80
2022-08-30T18:53:47.374Z,2.77
2022-08-30T18:56:16.204Z,2.87
2022-08-30T18:58:45.044Z,3.10
2022-08-30T19:01:12.917Z,3.28
2022-08-30T19:03:43.209Z,4.53
2022-08-30T19:06:11.776Z,3.21
2022-08-30T19:08:39.750Z,3.10
2022-08-30T19:11:09.200Z,3.05
2022-08-30T19:13:37.322Z,3.47
2022-08-30T19:16:05.783Z,3.90
2022-08-30T19:18:34.595Z,3.89
2022-08-30T19:21:04.228Z,4.54
2022-08-30T19:23:34.346Z,5.97
2022-08-30T19:26:01.365Z,5.97
2022-08-30T19:28:28.779Z,5.94
2022-08-30T19:30:58.004Z,6.48
2022-08-30T19:33:24.802Z,5.11
2022-08-30T19:35:53.179Z,3.95
2022-08-30T19:38:21.096Z,4.11
2022-08-30T19:40:52.395Z,5.88
2022-08-30T19:43:21.497Z,5.36
2022-08-30T19:45:53.858Z,5.68
2022-08-30T19:48:22.289Z,4.79
2022-08-30T19:50:49.355Z,4.86
2022-08-30T19:53:16.357Z,4.39
2022-08-30T19:55:44.317Z,4.64
2022-08-30T19:58:12.416Z,4.63
2022-08-30T20:00:39.258Z,4.79
2022-08-30T20:03:12.184Z,5.06
2022-08-30T20:05:50.861Z,4.96
2022-08-30T20:08:17.559Z,5.27
2022-08-30T20:10:45.478Z,4.82
2022-08-30T20:13:12.894Z,4.78
2022-08-30T20:15:39.732Z,5.04
2022-08-30T20:18:13.403Z,5.14
2022-08-30T20:20:41.693Z,5.33
2022-08-30T20:23:16.289Z,5.45
2022-08-30T20:24:23.149Z,8.67
2022-08-30T20:24:25.126Z,3.36
2022-08-30T20:25:51.132Z,5.75
2022-08-30T20:28:18.510Z,5.44
2022-08-30T20:30:45.343Z,5.47
2022-08-30T20:33:13.370Z,5.41
2022-08-30T20:35:44.450Z,5.76
2022-08-30T20:38:15.063Z,5.62
2022-08-30T20:40:41.782Z,5.43
2022-08-30T20:43:09.475Z,5.01
2022-08-30T20:45:36.089Z,5.24
2022-08-30T20:48:02.905Z,5.04
2022-08-30T20:50:29.647Z,5.19
2022-08-30T20:52:56.307Z,5.14
2022-08-30T20:55:24.771Z,4.68
2022-08-30T20:57:51.452Z,4.91
2022-08-30T21:00:18.172Z,5.08
2022-08-30T21:02:46.799Z,4.72
2022-08-30T21:05:20.739Z,4.74
2022-08-30T21:07:47.375Z,4.96
2022-08-30T21:10:21.222Z,4.50
2022-08-30T21:12:50.016Z,4.23
2022-08-30T21:15:36.278Z,4.52
2022-08-30T21:18:03.373Z,4.58
2022-08-30T21:20:30.053Z,4.51
2022-08-30T21:22:56.787Z,4.63
2022-08-30T21:25:23.463Z,4.68
2022-08-30T21:27:50.100Z,4.73
2022-08-30T21:30:18.203Z,4.38
2022-08-30T21:32:44.833Z,4.47
2022-08-30T21:35:11.472Z,4.67
2022-08-30T21:37:38.162Z,4.24
2022-08-30T21:40:05.291Z,4.43
2022-08-30T21:42:31.959Z,4.02
2022-08-30T21:45:01.271Z,4.33
2022-08-30T21:47:27.940Z,4.35
2022-08-30T21:49:57.461Z,4.40
2022-08-30T21:52:24.289Z,4.45
2022-08-30T21:54:53.765Z,4.32
2022-08-30T21:57:20.430Z,4.57
2022-08-30T21:59:47.115Z,4.55
2022-08-30T22:02:13.766Z,4.31
2022-08-30T22:04:41.028Z,4.33
2022-08-30T22:07:07.673Z,4.44
2022-08-30T22:09:35.456Z,4.81
2022-08-30T22:12:06.918Z,4.43
2022-08-30T22:14:35.748Z,4.75
2022-08-30T22:17:02.526Z,4.57
2022-08-30T22:19:33.512Z,4.60
2022-08-30T22:22:01.717Z,4.79
2022-08-30T22:24:32.049Z,4.58
2022-08-30T22:27:00.806Z,4.67
2022-08-30T22:29:27.454Z,4.55
2022-08-30T22:31:54.212Z,4.48
2022-08-30T22:34:21.008Z,4.44
2022-08-30T22:36:47.632Z,4.49
2022-08-30T22:39:14.312Z,4.31
2022-08-30T22:41:42.171Z,4.58
2022-08-30T22:44:10.716Z,4.61
2022-08-30T22:46:37.778Z,4.53
2022-08-30T22:49:06.558Z,4.51
2022-08-30T22:51:34.569Z,4.64
2022-08-30T22:54:03.574Z,4.64
2022-08-30T22:56:30.535Z,4.88
2022-08-30T22:58:57.170Z,4.75
2022-08-30T23:01:30.564Z,4.85
2022-08-30T23:03:58.760Z,4.72
2022-08-30T23:06:25.433Z,4.81
2022-08-30T23:08:52.048Z,4.71
2022-08-30T23:11:19.590Z,5.19
2022-08-30T23:13:47.290Z,4.64
2022-08-30T23:16:15.527Z,4.55
2022-08-30T23:18:43.804Z,4.68
2022-08-30T23:21:14.031Z,4.71
2022-08-30T23:23:41.155Z,4.54
2022-08-30T23:26:07.793Z,4.78
2022-08-30T23:28:34.417Z,4.88
2022-08-30T23:31:17.774Z,4.68
2022-08-30T23:33:44.426Z,4.85
2022-08-30T23:36:14.355Z,5.01
2022-08-30T23:38:41.233Z,4.96
2022-08-30T23:41:08.199Z,4.95
2022-08-30T23:43:34.893Z,4.77
2022-08-30T23:46:01.561Z,5.03
2022-08-30T23:48:28.227Z,4.98
2022-08-30T23:50:54.873Z,4.95
2022-08-30T23:53:21.472Z,4.97
2022-08-30T23:55:48.307Z,4.94
2022-08-30T23:58:14.964Z,5.29
